M I D A S
Marine Information and Data Acquisition System
Tripno 661 of the Zeeleeuw from 2004-03-04 07:28:48 to 2004-03-04 15:23:20
Back to CruiseResearch ActivitiesStationsMapUnderway DataData graphs

EquipmentUnitsComment
TimeDGPSUTC
LatitudeDGPSDM.mWGS84
LongitudeDGPSDM.mWGS84
HeadingGyrodeg 
SOGDGPSknotsSpeed over ground
COGDGPSdegCourse over ground
DepthEcho soundermeters200 kHz
Missing or incorrect values are displayed as -999
Navigation data collected by the RV Zeeleeuw from 2004-03-04 07:28:48 to 2004-03-04 15:23:20
Time Latitude Longitude Heading SOG COG Depth
2004-03-04 07:29:52 51°13.642 2°55.933 116.1 5.1 294 -999
2004-03-04 07:30:52 51°13.668 2°55.802 101.3 4.9 282 -999
2004-03-04 07:31:51 51°13.682 2°55.777 46.4 2.6 30 12.5
2004-03-04 07:32:51 51°13.745 2°55.735 320.9 5.4 317 9.1
2004-03-04 07:33:52 51°13.841 2°55.619 335.7 7.9 334 9.7
2004-03-04 07:34:52 51°13.967 2°55.527 340.6 8.5 336 10.4
2004-03-04 07:35:52 51°14.097 2°55.433 340 8.6 335 -999
2004-03-04 07:36:52 51°14.217 2°55.316 325.4 8.5 321 12
2004-03-04 07:37:52 51°14.342 2°55.115 316.8 12 311 -999
2004-03-04 07:38:51 51°14.455 2°54.851 300.4 12.5 293 10.5
2004-03-04 07:39:51 51°14.483 2°54.525 271.5 12.6 266 10.4
2004-03-04 07:40:52 51°14.439 2°54.293 261.2 6.4 258 9.9
2004-03-04 07:41:52 51°14.439 2°54.185 287.3 3.3 279 9.8
2004-03-04 07:42:51 51°14.444 2°54.111 279.6 2.5 272 9.9
2004-03-04 07:43:51 51°14.443 2°54.052 270.7 2 265 9.9
2004-03-04 07:44:52 51°14.439 2°54.002 264.1 1.7 261 10.2
2004-03-04 07:45:51 51°14.408 2°53.904 239.4 8.2 236 10
2004-03-04 07:46:51 51°14.293 2°53.629 240.3 13.8 237 9.8
2004-03-04 07:47:52 51°14.166 2°53.307 241.3 14.2 237 9.8
2004-03-04 07:48:51 51°14.038 2°52.995 241.1 14.3 237 10.3
2004-03-04 07:49:51 51°13.91 2°52.675 241.1 14.3 238 10.5
2004-03-04 07:50:51 51°13.784 2°52.353 241.6 14.4 238 10.5
2004-03-04 07:51:52 51°13.655 2°52.024 242.1 14.4 238 10.7
2004-03-04 07:52:51 51°13.53 2°51.705 242.4 14.5 239 10.8
2004-03-04 07:53:50 51°13.406 2°51.385 242 14.4 238 11.1
2004-03-04 07:54:52 51°13.275 2°51.049 241.9 14.4 238 11.1
2004-03-04 07:55:51 51°13.151 2°50.73 243 14.3 239 11.2
2004-03-04 07:56:51 51°13.025 2°50.404 242.4 14.4 239 11.3
2004-03-04 07:57:50 51°12.902 2°50.083 242.4 14.5 239 11.4
2004-03-04 07:58:52 51°12.772 2°49.747 242.4 14.4 238 11.5
2004-03-04 07:59:51 51°12.649 2°49.427 242.1 14.3 238 11.6
2004-03-04 08:00:51 51°12.525 2°49.104 242.4 14.3 239 11.6
2004-03-04 08:01:50 51°12.403 2°48.788 242.8 14.2 239 11.6
2004-03-04 08:02:52 51°12.274 2°48.456 242.1 14.2 238 11.6
2004-03-04 08:03:51 51°12.152 2°48.14 242.7 14.2 239 11.5
2004-03-04 08:04:51 51°12.027 2°47.819 242.1 14.3 238 11.4
2004-03-04 08:05:52 51°11.898 2°47.494 241.6 14.2 238 11.2
2004-03-04 08:06:51 51°11.775 2°47.179 241.9 14.2 238 10.9
2004-03-04 08:07:51 51°11.65 2°46.858 242.1 14.2 238 10.5
2004-03-04 08:08:51 51°11.526 2°46.539 241.9 14.2 238 10.2
2004-03-04 08:09:51 51°11.403 2°46.22 243 14 239 10
2004-03-04 08:10:51 51°11.301 2°45.887 253.6 14 249 9.9
2004-03-04 08:11:50 51°11.222 2°45.542 255.5 14.1 250 10.2
2004-03-04 08:12:51 51°11.141 2°45.183 254.8 14.2 251 10.2
2004-03-04 08:13:51 51°11.062 2°44.829 254.7 14.2 250 10.5
2004-03-04 08:14:52 51°10.98 2°44.469 254.6 14.2 250 10.5
2004-03-04 08:15:51 51°10.902 2°44.121 254.7 14.2 250 10.7
2004-03-04 08:16:52 51°10.82 2°43.763 253.8 14.2 249 10.7
2004-03-04 08:17:51 51°10.741 2°43.417 254.3 14.2 251 10.6
2004-03-04 08:18:52 51°10.66 2°43.057 254 14.1 250 10.6
2004-03-04 08:19:51 51°10.583 2°42.71 254.4 14.1 251 10.7
2004-03-04 08:20:50 51°10.507 2°42.363 254.3 14.1 250 10.7
2004-03-04 08:21:52 51°10.426 2°42.001 254.7 14.1 251 10.9
2004-03-04 08:22:50 51°10.352 2°41.662 254.5 14 251 11.1
2004-03-04 08:23:50 51°10.28 2°41.31 257.8 14 254 11.2
2004-03-04 08:24:50 51°10.215 2°40.956 257.8 13.9 254 11.6
2004-03-04 08:25:52 51°10.149 2°40.592 257.4 13.9 254 11.8
2004-03-04 08:26:50 51°10.087 2°40.252 257.4 13.8 254 11.9
2004-03-04 08:27:51 51°10.021 2°39.895 256.9 13.8 253 12.1
2004-03-04 08:28:52 51°9.961 2°39.537 258.8 13.8 255 12.3
2004-03-04 08:29:51 51°9.903 2°39.19 258.3 13.8 256 12.9
2004-03-04 08:30:51 51°9.845 2°38.837 258.2 13.7 255 13.3
2004-03-04 08:31:52 51°9.787 2°38.479 258.6 13.7 256 14
2004-03-04 08:32:51 51°9.73 2°38.133 258.3 13.7 255 14.8
2004-03-04 08:33:52 51°9.671 2°37.774 258.4 13.7 256 15.6
2004-03-04 08:34:51 51°9.623 2°37.429 263 12.3 261 16.6
2004-03-04 08:35:52 51°9.63 2°37.221 288.6 5.5 285 17.4
2004-03-04 08:36:51 51°9.616 2°37.121 233.1 3.2 233 17.2
2004-03-04 08:37:52 51°9.586 2°37.069 222.5 2.3 223 17.5
2004-03-04 08:38:51 51°9.562 2°37.037 217.3 1.7 220 17.3
2004-03-04 08:39:51 51°9.543 2°37.013 213.5 1.4 215 17.2
2004-03-04 08:40:50 51°9.509 2°36.963 232.9 3.6 231 17.3
2004-03-04 08:41:52 51°9.473 2°36.866 243.1 4.3 241 17.2
2004-03-04 08:42:52 51°9.443 2°36.777 240.2 3.5 239 17.2
2004-03-04 08:43:51 51°9.413 2°36.7 239.5 3.4 240 17.2
2004-03-04 08:44:51 51°9.388 2°36.621 246.5 3.3 248 17.3
2004-03-04 08:45:51 51°9.369 2°36.538 250.1 3.5 251 17.3
2004-03-04 08:46:50 51°9.351 2°36.454 251.1 3.3 252 17.4
2004-03-04 08:47:51 51°9.332 2°36.374 247.4 3.1 247 17.4
2004-03-04 08:48:50 51°9.312 2°36.302 246.4 3 247 17.4
2004-03-04 08:49:52 51°9.292 2°36.225 247.5 3 249 17.4
2004-03-04 08:50:52 51°9.271 2°36.155 240.7 2.9 241 17.4
2004-03-04 08:51:50 51°9.247 2°36.09 241.6 3 241 17.6
2004-03-04 08:52:50 51°9.226 2°36.019 244.6 2.9 245 17.6
2004-03-04 08:53:51 51°9.206 2°35.946 247.1 3 249 17.6
2004-03-04 08:54:52 51°9.189 2°35.872 249.7 2.9 251 17.6
2004-03-04 08:55:51 51°9.171 2°35.803 242.3 2.8 243 17.7
2004-03-04 08:56:51 51°9.146 2°35.739 236.1 2.9 236 17.8
2004-03-04 08:57:51 51°9.118 2°35.671 238.2 3.1 238 17.8
2004-03-04 08:58:50 51°9.09 2°35.6 239.2 3.3 240 17.9
2004-03-04 08:59:51 51°9.06 2°35.523 240 3.4 240 18
2004-03-04 09:00:51 51°9.032 2°35.445 240.6 3.4 240 18.1
2004-03-04 09:01:50 51°9.003 2°35.369 240.1 3.4 239 18.2
2004-03-04 09:02:52 51°8.973 2°35.289 240.2 3.4 239 18.2
2004-03-04 09:03:51 51°8.947 2°35.212 242.4 3.4 243 18.2
2004-03-04 09:04:52 51°8.922 2°35.131 244.6 3.4 244 18.2
2004-03-04 09:05:51 51°8.9 2°35.051 246.8 3.3 249 18.3
2004-03-04 09:06:51 51°8.88 2°34.97 249.1 3.3 251 18.4
2004-03-04 09:07:51 51°8.862 2°34.89 246.2 3.2 248 18.5
2004-03-04 09:08:51 51°8.838 2°34.816 240.9 3.1 241 18.4
2004-03-04 09:09:51 51°8.811 2°34.745 239 3.1 238 18.7
2004-03-04 09:10:50 51°8.784 2°34.679 237 3 236 18.8
2004-03-04 09:11:51 51°8.757 2°34.609 242.4 3.1 241 18.8
2004-03-04 09:12:52 51°8.739 2°34.532 252 3 252 19
2004-03-04 09:13:52 51°8.734 2°34.455 261.9 2.9 268 18.9
2004-03-04 09:14:51 51°8.739 2°34.379 272.4 2.9 281 19.1
2004-03-04 09:15:50 51°8.754 2°34.307 282.6 2.7 295 18.7
2004-03-04 09:16:51 51°8.773 2°34.253 279.3 1.9 301 18.7
2004-03-04 09:17:51 51°8.786 2°34.217 270.1 1.3 298 18.5
2004-03-04 09:18:52 51°8.795 2°34.191 263.4 0.9 302 18.5
2004-03-04 09:19:51 51°8.802 2°34.175 259.5 0.7 313 18.3
2004-03-04 09:20:51 51°8.811 2°34.164 257.3 0.5 325 18.9
2004-03-04 09:21:51 51°8.819 2°34.157 255 0.6 341 18.9
2004-03-04 09:22:51 51°8.828 2°34.154 253.6 0.6 354 18.4
2004-03-04 09:23:51 51°8.824 2°34.107 250.7 4.9 252 18.3
2004-03-04 09:24:51 51°8.781 2°33.914 252.1 8.9 250 17.8
2004-03-04 09:25:51 51°8.73 2°33.682 252.5 9.4 251 18.3
2004-03-04 09:26:52 51°8.665 2°33.457 235.8 9.1 231 18.1
2004-03-04 09:27:52 51°8.537 2°33.33 207.5 9.3 200 18.1
2004-03-04 09:28:51 51°8.396 2°33.25 210.9 8.9 207 18.3
2004-03-04 09:29:52 51°8.268 2°33.133 215.3 8.7 210 18.6
2004-03-04 09:30:52 51°8.146 2°33.023 215.5 7.2 208 18.5
2004-03-04 09:31:52 51°8.07 2°32.991 193.2 3.5 178 18.2
2004-03-04 09:32:51 51°8.055 2°33.01 163.3 0.9 50 17.8
2004-03-04 09:33:52 51°8.066 2°33.029 159.2 0.9 47 5.7
2004-03-04 09:34:51 51°8.078 2°33.048 166.9 1.1 46 18.1
2004-03-04 09:35:52 51°8.091 2°33.068 176.3 1.1 41 18.3
2004-03-04 09:36:52 51°8.106 2°33.087 189.6 1.1 38 18.4
2004-03-04 09:37:52 51°8.116 2°33.103 210 0.5 48 18.4
2004-03-04 09:38:51 51°8.115 2°33.105 223.4 0.4 204 18.4
2004-03-04 09:39:51 51°8.108 2°33.089 235.7 1 241 18.4
2004-03-04 09:40:52 51°8.099 2°33.059 244.1 1.4 253 18.3
2004-03-04 09:41:51 51°8.087 2°33.028 234.9 1.4 236 18.4
2004-03-04 09:42:52 51°8.073 2°32.996 237.2 1.3 238 18.2
2004-03-04 09:43:51 51°8.064 2°32.979 227.9 0.6 217 18.3
2004-03-04 09:44:52 51°8.058 2°32.978 219.9 0.2 160 18.2
2004-03-04 09:45:51 51°8.057 2°32.986 214.3 0.3 80 18.1
2004-03-04 09:46:51 51°8.058 2°32.999 210.3 0.5 69 18.1
2004-03-04 09:47:51 51°8.063 2°33.015 207.5 0.7 62 18.1
2004-03-04 09:48:51 51°8.07 2°33.032 207.8 0.8 54 18.2
2004-03-04 09:49:51 51°8.079 2°33.05 209 0.9 48 18.3
2004-03-04 09:50:51 51°8.089 2°33.067 211.9 1 46 18.4
2004-03-04 09:51:52 51°8.101 2°33.086 214 1 46 18.4
2004-03-04 09:52:51 51°8.113 2°33.105 215.1 1.1 47 18.6
2004-03-04 09:53:51 51°8.127 2°33.123 217.1 1.1 41 18.7
2004-03-04 09:54:52 51°8.141 2°33.143 220.5 1.1 40 18.7
2004-03-04 09:55:52 51°8.156 2°33.163 224.2 1.2 40 18.9
2004-03-04 09:56:52 51°8.147 2°33.152 228.6 2.9 226 18.7
2004-03-04 09:57:52 51°8.16 2°33.045 301.9 5.7 316 19
2004-03-04 09:58:52 51°8.271 2°33.046 20.5 8 26 19.9
2004-03-04 09:59:52 51°8.4 2°33.231 48.4 13.5 45 18.5
2004-03-04 10:00:52 51°8.579 2°33.509 47.9 15.3 43 18.3
2004-03-04 10:01:52 51°8.76 2°33.796 50 15.4 46 18.4
2004-03-04 10:02:52 51°8.935 2°34.095 51.2 15.5 47 18.3
2004-03-04 10:03:52 51°9.111 2°34.395 50.2 15.5 47 19.5
2004-03-04 10:04:52 51°9.28 2°34.707 55.7 15.7 52 20.1
2004-03-04 10:05:51 51°9.419 2°35.046 66.1 15.5 62 19.9
2004-03-04 10:06:52 51°9.494 2°35.397 89.8 10.7 84 19.7
2004-03-04 10:07:51 51°9.472 2°35.573 132.9 5.1 113 20.2
2004-03-04 10:08:52 51°9.441 2°35.665 153.2 3.3 121 19.8
2004-03-04 10:09:52 51°9.414 2°35.721 178.1 2.2 135 19
2004-03-04 10:10:52 51°9.391 2°35.75 195.3 1.6 149 19.1
2004-03-04 10:11:52 51°9.371 2°35.768 201.1 1.3 153 19.2
2004-03-04 10:12:52 51°9.354 2°35.783 203.8 1.1 150 19.2
2004-03-04 10:13:52 51°9.338 2°35.797 204 1.1 149 18.8
2004-03-04 10:14:51 51°9.324 2°35.811 204.6 1 151 18.9
2004-03-04 10:15:51 51°9.31 2°35.826 205.4 0.9 147 19.1
2004-03-04 10:16:52 51°9.297 2°35.839 207.8 0.8 151 19.2
2004-03-04 10:17:52 51°9.285 2°35.849 208.9 0.7 153 18.6
2004-03-04 10:18:51 51°9.274 2°35.86 210.4 0.8 154 18.9
2004-03-04 10:19:51 51°9.261 2°35.866 213.3 0.9 163 18.5
2004-03-04 10:20:52 51°9.247 2°35.87 215.4 0.8 173 19.1
2004-03-04 10:21:52 51°9.235 2°35.872 217.1 0.8 178 19
2004-03-04 10:22:52 51°9.222 2°35.872 218.2 0.8 177 18.9
2004-03-04 10:23:52 51°9.21 2°35.871 220.2 0.8 184 18.6
2004-03-04 10:24:52 51°9.198 2°35.869 220.2 0.6 174 18.6
2004-03-04 10:25:50 51°9.191 2°35.876 216.1 0.5 128 18.6
2004-03-04 10:26:52 51°9.187 2°35.892 209.1 0.7 102 18.6
2004-03-04 10:27:52 51°9.152 2°35.943 149.2 5.3 123 18.6
2004-03-04 10:28:50 51°9.179 2°36.134 55.8 9.9 49 18.3
2004-03-04 10:29:52 51°9.351 2°36.193 351.6 12.1 354 18.7
2004-03-04 10:30:52 51°9.58 2°36.135 349.9 14.3 351 19.6
2004-03-04 10:31:52 51°9.817 2°36.074 351.1 14.5 352 20.4
2004-03-04 10:32:51 51°10.053 2°36.018 350.5 14.6 352 19.8
2004-03-04 10:33:52 51°10.298 2°36.004 7 14.7 8 13
2004-03-04 10:34:52 51°10.537 2°36.102 19.4 14.8 17 13.2
2004-03-04 10:35:52 51°10.769 2°36.23 22 14.7 19 13.7
2004-03-04 10:36:52 51°10.995 2°36.381 29 14.7 26 14.3
2004-03-04 10:37:51 51°11.211 2°36.548 28.3 14.6 25 14.6
2004-03-04 10:38:51 51°11.429 2°36.723 31.3 14.7 28 14.6
2004-03-04 10:39:52 51°11.649 2°36.907 30.4 14.8 28 14.4
2004-03-04 10:40:52 51°11.866 2°37.088 30.7 14.6 27 14.1
2004-03-04 10:41:51 51°12.079 2°37.263 30 14.7 27 14.2
2004-03-04 10:42:52 51°12.299 2°37.446 31 14.6 28 14.3
2004-03-04 10:43:52 51°12.515 2°37.632 33 14.8 31 14.7
2004-03-04 10:44:51 51°12.723 2°37.83 34.1 14.8 30 15.3
2004-03-04 10:45:52 51°12.941 2°38.032 33.1 14.8 30 16
2004-03-04 10:46:52 51°13.152 2°38.233 34.1 14.8 31 16.3
2004-03-04 10:47:51 51°13.36 2°38.43 33.9 14.7 31 16.8
2004-03-04 10:48:51 51°13.571 2°38.629 33.3 14.6 31 17
2004-03-04 10:49:52 51°13.785 2°38.829 32.9 14.7 31 16.5
2004-03-04 10:50:52 51°14.013 2°38.926 6.5 14.3 5 15.3
2004-03-04 10:51:51 51°14.235 2°38.877 335.1 13.5 333 16.3
2004-03-04 10:52:51 51°14.388 2°38.636 299.3 12.9 299 20.1
2004-03-04 10:53:52 51°14.413 2°38.314 263.4 12.3 262 19.8
2004-03-04 10:54:52 51°14.351 2°38.007 251.1 12.1 246 19.1
2004-03-04 10:55:52 51°14.266 2°37.715 246 12.1 242 18.4
2004-03-04 10:56:52 51°14.172 2°37.431 245.9 12.1 242 19
2004-03-04 10:57:52 51°14.071 2°37.153 243.1 12.1 239 19.9
2004-03-04 10:58:52 51°13.969 2°36.874 243.1 12.2 239 20.9
2004-03-04 10:59:52 51°13.869 2°36.592 244.7 12.3 240 21.3
2004-03-04 11:00:52 51°13.769 2°36.308 244.3 12.3 241 21.6
2004-03-04 11:01:52 51°13.67 2°36.026 244.7 12.2 241 21
2004-03-04 11:02:52 51°13.57 2°35.744 243.8 12.2 240 18.3
2004-03-04 11:03:52 51°13.472 2°35.46 244.5 12.3 241 19.7
2004-03-04 11:04:52 51°13.374 2°35.175 244.8 12.2 242 18.7
2004-03-04 11:05:52 51°13.275 2°34.891 245.1 12.2 242 19.4
2004-03-04 11:06:52 51°13.175 2°34.605 244.1 12.4 242 19
2004-03-04 11:07:52 51°13.075 2°34.316 243.9 12.5 241 18.6
2004-03-04 11:08:52 51°12.975 2°34.028 244.2 12.4 241 18.1
2004-03-04 11:09:52 51°12.875 2°33.738 244.3 12.4 242 16.8
2004-03-04 11:10:52 51°12.775 2°33.448 243.8 12.5 241 17.9
2004-03-04 11:11:52 51°12.675 2°33.158 244.1 12.4 242 17.2
2004-03-04 11:12:52 51°12.587 2°32.859 248.6 12.5 246 18.9
2004-03-04 11:13:52 51°12.504 2°32.556 248.5 12.5 246 19.9
2004-03-04 11:14:52 51°12.418 2°32.253 248.4 12.6 246 21.5
2004-03-04 11:15:52 51°12.332 2°31.944 248.3 12.7 246 24
2004-03-04 11:16:52 51°12.248 2°31.639 248.4 12.4 246 24.6
2004-03-04 11:17:52 51°12.163 2°31.337 247.5 12.6 246 25.2
2004-03-04 11:18:52 51°12.079 2°31.036 249.2 12.3 246 25.2
2004-03-04 11:19:52 51°11.996 2°30.737 249 12.3 246 24.6
2004-03-04 11:20:52 51°11.914 2°30.443 248.6 12.1 246 25
2004-03-04 11:21:52 51°11.83 2°30.149 248.2 12.2 245 25.2
2004-03-04 11:22:52 51°11.745 2°29.855 248 12.2 246 25.4
2004-03-04 11:23:52 51°11.659 2°29.563 248.4 12.1 245 24.8
2004-03-04 11:24:52 51°11.573 2°29.273 248.6 12.2 245 26.8
2004-03-04 11:25:52 51°11.492 2°28.979 250.9 12 247 26.5
2004-03-04 11:26:52 51°11.413 2°28.685 252.3 12 250 25.3
2004-03-04 11:27:52 51°11.351 2°28.382 255.6 12.1 252 25
2004-03-04 11:28:52 51°11.289 2°28.078 255.4 12.1 252 24.9
2004-03-04 11:29:52 51°11.228 2°27.77 255.7 12.3 252 25.3
2004-03-04 11:30:52 51°11.166 2°27.459 255.9 12.4 253 25.7
2004-03-04 11:31:52 51°11.103 2°27.144 255.4 12.5 253 24.1
2004-03-04 11:32:52 51°11.042 2°26.827 255.6 12.5 253 24.7
2004-03-04 11:33:52 51°10.982 2°26.511 255.5 12.5 254 23.3
2004-03-04 11:34:52 51°10.924 2°26.192 256.6 12.6 258 21.7
2004-03-04 11:35:52 51°10.935 2°25.858 280.1 12.7 281 19.5
2004-03-04 11:36:52 51°11.033 2°25.559 305.2 13 308 15.4
2004-03-04 11:37:52 51°11.206 2°25.339 328.4 13.9 332 23.2
2004-03-04 11:38:52 51°11.432 2°25.222 347.2 14.6 350 25.8
2004-03-04 11:39:52 51°11.677 2°25.268 13.8 15 12 28.2
2004-03-04 11:40:52 51°11.919 2°25.363 18.5 15 20 27.1
2004-03-04 11:41:52 51°12.15 2°25.523 25.9 15.2 23 27.8
2004-03-04 11:42:52 51°12.383 2°25.676 23.9 15.1 22 27.4
2004-03-04 11:43:52 51°12.618 2°25.822 24.2 15.2 21 27.3
2004-03-04 11:44:52 51°12.855 2°25.969 22.9 15.3 20 27.7
2004-03-04 11:45:52 51°13.095 2°26.114 21.7 15.5 19 28.4
2004-03-04 11:46:52 51°13.305 2°26.245 22 11.4 21 28.9
2004-03-04 11:47:52 51°13.418 2°26.329 41 3.9 39 28.8
2004-03-04 11:48:52 51°13.443 2°26.353 58 2.5 39 -999
2004-03-04 11:49:52 51°13.49 2°26.429 59.5 4.7 50 29.2
2004-03-04 11:50:52 51°13.535 2°26.52 67.4 4.1 53 29.7
2004-03-04 11:51:52 51°13.575 2°26.605 70.5 3.9 53 29.2
2004-03-04 11:52:52 51°13.612 2°26.686 74.6 3.7 54 28.9
2004-03-04 11:53:52 51°13.647 2°26.765 76 3.6 54 29
2004-03-04 11:54:52 51°13.682 2°26.843 78.4 3.5 55 28.8
2004-03-04 11:55:52 51°13.715 2°26.919 80.5 3.5 57 28.9
2004-03-04 11:56:52 51°13.749 2°26.997 80.4 3.5 56 28.7
2004-03-04 11:57:52 51°13.781 2°27.075 82 3.6 57 28.1
2004-03-04 11:58:52 51°13.813 2°27.154 83.2 3.6 56 28.9
2004-03-04 11:59:52 51°13.845 2°27.234 82.9 3.5 58 28.7
2004-03-04 12:00:52 51°13.877 2°27.312 83.5 3.5 58 28.7
2004-03-04 12:01:52 51°13.909 2°27.39 83.5 3.5 58 28.9
2004-03-04 12:02:52 51°13.941 2°27.468 86 3.5 59 29.1
2004-03-04 12:03:52 51°13.972 2°27.548 86.3 3.5 58 29
2004-03-04 12:04:52 51°14.001 2°27.625 87.2 3.5 59 28.9
2004-03-04 12:05:52 51°14.031 2°27.704 87.8 3.4 60 28.5
2004-03-04 12:06:52 51°14.068 2°27.825 79.1 8.4 65 28.7
2004-03-04 12:07:52 51°14.222 2°28.088 42.3 15.4 36 29.3
2004-03-04 12:08:52 51°14.43 2°28.333 43.1 15.7 38 29.5
2004-03-04 12:09:52 51°14.628 2°28.593 44.7 15.3 39 29.9
2004-03-04 12:10:52 51°14.821 2°28.857 46.1 15.5 40 29.8
2004-03-04 12:11:52 51°15.014 2°29.122 45.9 15.4 41 29.9
2004-03-04 12:12:52 51°15.204 2°29.391 46.4 15.2 41 30.1
2004-03-04 12:13:52 51°15.395 2°29.663 46.7 15.4 42 30.4
2004-03-04 12:14:52 51°15.583 2°29.938 47.3 15.4 44 30.5
2004-03-04 12:15:52 51°15.774 2°30.214 46.5 15.6 42 30.3
2004-03-04 12:16:52 51°15.963 2°30.491 47.5 15.6 43 30.7
2004-03-04 12:17:52 51°16.154 2°30.769 46.5 15.4 43 30.8
2004-03-04 12:18:52 51°16.344 2°31.049 48.3 15.5 42 30.2
2004-03-04 12:19:52 51°16.536 2°31.331 47.1 15.8 42 28
2004-03-04 12:20:52 51°16.729 2°31.611 46.2 15.8 41 29.6
2004-03-04 12:21:52 51°16.922 2°31.891 47.1 15.7 42 28.6
2004-03-04 12:22:52 51°17.113 2°32.169 47.5 15.6 42 28.2
2004-03-04 12:23:52 51°17.303 2°32.448 47.3 15.5 45 29.4
2004-03-04 12:24:52 51°17.495 2°32.726 47.6 15.6 43 29.2
2004-03-04 12:25:52 51°17.686 2°33.006 47.2 15.7 42 27.6
2004-03-04 12:26:52 51°17.878 2°33.288 48 15.8 43 28
2004-03-04 12:27:52 51°18.068 2°33.57 47.8 15.6 44 26.6
2004-03-04 12:28:52 51°18.265 2°33.84 43.8 15.6 40 26.4
2004-03-04 12:29:52 51°18.463 2°34.106 44.3 15.7 40 19.7
2004-03-04 12:30:51 51°18.658 2°34.368 43.7 15.4 39 22.6
2004-03-04 12:31:52 51°18.859 2°34.631 42.8 15.4 39 21.4
2004-03-04 12:32:52 51°19.054 2°34.897 44.7 15.5 41 21.1
2004-03-04 12:33:52 51°19.251 2°35.146 38.7 14 35 21.8
2004-03-04 12:34:52 51°19.408 2°35.291 26.6 8.8 25 21.7
2004-03-04 12:35:52 51°19.518 2°35.35 9.8 6 14 21.3
2004-03-04 12:36:52 51°19.602 2°35.386 9.2 4.8 16 20.5
2004-03-04 12:37:52 51°19.675 2°35.436 27.6 4.4 29 20.3
2004-03-04 12:38:52 51°19.726 2°35.499 47.1 3.6 44 20.1
2004-03-04 12:39:52 51°19.764 2°35.564 58.5 3.1 50 20.5
2004-03-04 12:40:52 51°19.794 2°35.624 66 2.8 50 20.7
2004-03-04 12:41:52 51°19.821 2°35.681 72.5 2.6 53 20.2
2004-03-04 12:42:52 51°19.843 2°35.736 79 2.4 57 21.7
2004-03-04 12:43:52 51°19.866 2°35.793 82.3 2.7 63 22
2004-03-04 12:44:52 51°19.887 2°35.875 89.9 3.6 70 22
2004-03-04 12:45:52 51°19.904 2°35.973 98.5 3.9 79 21.2
2004-03-04 12:46:52 51°19.913 2°36.078 106.6 4 86 22.8
2004-03-04 12:47:52 51°19.913 2°36.183 116.4 3.9 92 21.8
2004-03-04 12:48:52 51°19.907 2°36.285 124 3.8 100 23.1
2004-03-04 12:49:52 51°19.891 2°36.379 133.1 3.6 107 23.7
2004-03-04 12:50:52 51°19.87 2°36.466 141.1 3.5 113 22
2004-03-04 12:51:52 51°19.845 2°36.55 142.2 3.5 115 23.7
2004-03-04 12:52:52 51°19.823 2°36.632 142.2 3.1 116 22.9
2004-03-04 12:53:52 51°19.796 2°36.714 148.3 4.3 126 23.1
2004-03-04 12:54:52 51°19.71 2°36.832 153.8 10.8 143 22.5
2004-03-04 12:55:52 51°19.536 2°37.044 148.7 13.7 139 24.1
2004-03-04 12:56:52 51°19.362 2°37.28 147.6 13.8 138 23.2
2004-03-04 12:57:52 51°19.183 2°37.512 148.7 13.8 142 21.8
2004-03-04 12:58:52 51°19.007 2°37.747 144.3 13.7 136 23.3
2004-03-04 12:59:52 51°18.847 2°38.011 141 13.9 133 26.2
2004-03-04 13:00:52 51°18.687 2°38.275 142.8 13.8 135 28
2004-03-04 13:01:52 51°18.522 2°38.526 143.4 13.7 136 28.1
2004-03-04 13:02:52 51°18.359 2°38.78 143.7 13.7 135 28.4
2004-03-04 13:03:52 51°18.201 2°39.044 145 13.7 134 28.2
2004-03-04 13:04:52 51°18.046 2°39.301 144 12.5 133 28.4
2004-03-04 13:05:52 51°17.934 2°39.476 157.9 6.6 143 27.4
2004-03-04 13:06:52 51°17.869 2°39.52 189.6 3.3 168 24.2
2004-03-04 13:07:52 51°17.819 2°39.546 176.6 3.2 155 21.3
2004-03-04 13:08:52 51°17.778 2°39.588 172.2 1 96 17.9
2004-03-04 13:09:52 51°17.788 2°39.611 182.5 1 57 -999
2004-03-04 13:10:52 51°17.797 2°39.633 192.5 1 50 5.6
2004-03-04 13:11:52 51°17.808 2°39.653 201.1 1.1 52 17.5
2004-03-04 13:12:52 51°17.819 2°39.674 209.6 1.1 49 16.7
2004-03-04 13:13:52 51°17.83 2°39.694 214.9 0.9 43 17
2004-03-04 13:14:52 51°17.841 2°39.709 221.6 0.8 37 19.4
2004-03-04 13:15:52 51°17.852 2°39.722 230.5 0.8 30 19
2004-03-04 13:16:52 51°17.864 2°39.732 238.4 0.8 27 18.2
2004-03-04 13:17:52 51°17.876 2°39.743 242.3 0.9 28 17.4
2004-03-04 13:18:52 51°17.889 2°39.753 244.2 0.9 27 16
2004-03-04 13:19:52 51°17.9 2°39.759 243 0.5 317 14.8
2004-03-04 13:20:52 51°17.844 2°39.742 177.8 6.7 162 20.2
2004-03-04 13:21:52 51°17.815 2°39.943 76.1 9.6 65 19.6
2004-03-04 13:22:52 51°17.936 2°40.164 51.3 11.6 46 18.7
2004-03-04 13:23:52 51°18.075 2°40.389 52.5 11.9 47 19.8
2004-03-04 13:24:52 51°18.224 2°40.66 54.6 14.6 51 17.7
2004-03-04 13:25:52 51°18.376 2°40.965 56.6 14.9 52 16.4
2004-03-04 13:26:52 51°18.528 2°41.275 57.2 14.9 52 20.6
2004-03-04 13:27:52 51°18.701 2°41.557 48.4 14.8 45 20.9
2004-03-04 13:28:52 51°18.879 2°41.832 48.9 15 44 22.9
2004-03-04 13:29:52 51°19.056 2°42.109 48.7 15 43 24.3
2004-03-04 13:30:52 51°19.237 2°42.379 47 14.9 43 24.9
2004-03-04 13:31:52 51°19.421 2°42.647 45.7 15 41 25.5
2004-03-04 13:32:52 51°19.598 2°42.923 52.9 14.7 50 26.5
2004-03-04 13:33:52 51°19.715 2°43.267 71.8 14.8 68 27.3
2004-03-04 13:34:52 51°19.816 2°43.628 69.8 15 64 26
2004-03-04 13:35:52 51°19.92 2°43.989 70 15.1 65 27.1
2004-03-04 13:36:52 51°20.026 2°44.351 68.9 15 64 25.3
2004-03-04 13:37:52 51°20.136 2°44.707 70 14.9 64 25.1
2004-03-04 13:38:52 51°20.25 2°45.068 69.8 15.3 65 25
2004-03-04 13:39:52 51°20.364 2°45.43 68.3 15.2 62 25.1
2004-03-04 13:40:52 51°20.465 2°45.74 66.2 9.9 60 24.3
2004-03-04 13:41:52 51°20.505 2°45.862 90.8 1.5 38 22.6
2004-03-04 13:42:52 51°20.519 2°45.916 106.8 2.6 76 22
2004-03-04 13:43:52 51°20.519 2°45.997 119.6 3.6 98 23.4
2004-03-04 13:44:52 51°20.504 2°46.098 126 3.8 103 22.2
2004-03-04 13:45:52 51°20.491 2°46.188 129.7 3.3 105 22
2004-03-04 13:46:52 51°20.478 2°46.267 133.5 2.9 107 21.3
2004-03-04 13:47:52 51°20.462 2°46.335 140.7 2.6 113 19.7
2004-03-04 13:48:52 51°20.444 2°46.394 145.8 2.4 120 17.4
2004-03-04 13:49:52 51°20.423 2°46.445 151.6 2.3 124 17.6
2004-03-04 13:50:52 51°20.401 2°46.489 156.2 2.1 128 17.8
2004-03-04 13:51:52 51°20.377 2°46.529 159.7 2.1 134 16.8
2004-03-04 13:52:52 51°20.352 2°46.564 163.9 2 138 18.1
2004-03-04 13:53:52 51°20.326 2°46.595 167.5 1.9 146 16.7
2004-03-04 13:54:52 51°20.298 2°46.621 170 1.9 147 16.9
2004-03-04 13:55:52 51°20.27 2°46.643 174.9 1.9 156 18
2004-03-04 13:56:52 51°20.241 2°46.658 180.3 1.8 164 18.1
2004-03-04 13:57:52 51°20.211 2°46.667 186.1 1.9 172 17.9
2004-03-04 13:58:52 51°20.108 2°46.708 165.4 11.4 159 17.4
2004-03-04 13:59:52 51°19.907 2°46.83 157.9 13.2 152 19.8
2004-03-04 14:00:52 51°19.733 2°47.058 144.5 13.6 139 22.2
2004-03-04 14:01:52 51°19.575 2°47.318 134.4 13.7 127 22.8
2004-03-04 14:02:52 51°19.437 2°47.611 134.1 13.8 128 22.4
2004-03-04 14:03:52 51°19.302 2°47.899 134.1 13.6 127 20.9
2004-03-04 14:04:52 51°19.169 2°48.19 129.8 13.6 124 18.7
2004-03-04 14:05:52 51°19.042 2°48.489 130.1 13.7 125 16.3
2004-03-04 14:06:52 51°18.916 2°48.788 128.3 13.4 121 14.3
2004-03-04 14:07:52 51°18.793 2°49.089 129.3 13.6 123 11.7
2004-03-04 14:08:52 51°18.671 2°49.39 129.5 13.5 124 11.4
2004-03-04 14:09:52 51°18.554 2°49.699 127.2 13.6 121 13.1
2004-03-04 14:10:52 51°18.441 2°50.013 126 13.7 121 14.6
2004-03-04 14:11:52 51°18.326 2°50.324 126.5 13.6 121 15
2004-03-04 14:12:52 51°18.218 2°50.642 121.5 13.5 115 14.2
2004-03-04 14:13:52 51°18.165 2°50.914 107.4 8.1 98 13.9
2004-03-04 14:14:52 51°18.179 2°51.042 72.6 3.5 61 13.8
2004-03-04 14:15:52 51°18.212 2°51.119 69.8 3.6 58 13.8
2004-03-04 14:16:52 51°18.236 2°51.196 81.7 3 67 13.7
2004-03-04 14:17:52 51°18.25 2°51.266 94.3 2.5 76 13.7
2004-03-04 14:18:52 51°18.256 2°51.327 104.1 2.2 82 13.5
2004-03-04 14:19:52 51°18.256 2°51.384 112.9 2 91 13.3
2004-03-04 14:20:52 51°18.253 2°51.435 121 1.9 97 13.1
2004-03-04 14:21:52 51°18.244 2°51.482 130.2 1.9 113 13
2004-03-04 14:22:52 51°18.229 2°51.526 141.7 1.8 125 12.8
2004-03-04 14:23:52 51°18.209 2°51.56 155.6 1.8 140 12.6
2004-03-04 14:24:52 51°18.183 2°51.58 169 1.7 161 12.5
2004-03-04 14:25:52 51°18.155 2°51.591 177 1.8 168 12.4
2004-03-04 14:26:52 51°18.124 2°51.594 184.9 1.8 177 12.2
2004-03-04 14:27:52 51°18.094 2°51.588 192.1 1.8 191 12
2004-03-04 14:28:52 51°18.065 2°51.573 201 1.9 204 12
2004-03-04 14:29:52 51°18.036 2°51.551 205 1.9 210 11.9
2004-03-04 14:30:52 51°18.007 2°51.523 206.9 2 209 11.7
2004-03-04 14:31:52 51°17.976 2°51.498 203.9 2.1 205 11.7
2004-03-04 14:32:52 51°17.892 2°51.533 154.5 9.8 150 11.1
2004-03-04 14:33:52 51°17.723 2°51.726 147.5 13 142 10.7
2004-03-04 14:34:52 51°17.544 2°51.94 145.8 13.5 143 11
2004-03-04 14:35:52 51°17.365 2°52.157 144.5 13.8 141 10.9
2004-03-04 14:36:52 51°17.191 2°52.386 142.9 13.5 139 10.6
2004-03-04 14:37:52 51°17.02 2°52.62 144.7 13.5 141 10.6
2004-03-04 14:38:52 51°16.861 2°52.873 138.4 13.7 134 9.6
2004-03-04 14:39:52 51°16.7 2°53.13 140.1 13.7 135 11.9
2004-03-04 14:40:52 51°16.549 2°53.364 141.1 10 137 12.8
2004-03-04 14:41:52 51°16.454 2°53.449 173.5 4.2 171 12.7
2004-03-04 14:42:52 51°16.403 2°53.441 196.7 2.6 194 12.9
2004-03-04 14:43:52 51°16.37 2°53.418 209.9 2 209 12.8
2004-03-04 14:44:52 51°16.344 2°53.386 219.8 1.9 221 12.8
2004-03-04 14:45:52 51°16.322 2°53.347 228 1.9 232 12.8
2004-03-04 14:46:52 51°16.304 2°53.304 235.3 2 240 12.7
2004-03-04 14:47:52 51°16.288 2°53.256 241.3 2 246 12.8
2004-03-04 14:48:52 51°16.275 2°53.205 245.4 2.1 248 12.9
2004-03-04 14:49:52 51°16.263 2°53.152 249.3 2.2 254 12.8
2004-03-04 14:50:52 51°16.254 2°53.097 253.7 2.2 257 12.8
2004-03-04 14:51:52 51°16.247 2°53.04 257.5 2.2 261 12.7
2004-03-04 14:52:52 51°16.242 2°52.981 260.5 2.3 264 12.8
2004-03-04 14:53:52 51°16.238 2°52.921 263.7 2.3 267 12.8
2004-03-04 14:54:52 51°16.237 2°52.861 266.6 2.3 270 12.8
2004-03-04 14:55:52 51°16.236 2°52.8 268.1 2.3 271 12.9
2004-03-04 14:56:52 51°16.237 2°52.74 270.5 2.2 270 13
2004-03-04 14:57:52 51°16.238 2°52.689 269.6 1.8 271 12.9
2004-03-04 14:58:52 51°16.239 2°52.643 268 1.6 274 13
2004-03-04 14:59:52 51°16.239 2°52.602 267 1.5 274 13
2004-03-04 15:00:52 51°16.24 2°52.566 266 1.3 272 13
2004-03-04 15:01:52 51°16.24 2°52.534 257.6 1.1 266 12.9
2004-03-04 15:02:52 51°16.239 2°52.506 250.1 1 257 12.9
2004-03-04 15:03:52 51°16.236 2°52.481 243 1.1 252 12.9
2004-03-04 15:04:52 51°16.17 2°52.418 202.5 8.6 201 12.9
2004-03-04 15:05:52 51°15.977 2°52.451 162.4 13.3 159 12.5
2004-03-04 15:06:52 51°15.802 2°52.668 139.7 13.6 138 12.2
2004-03-04 15:07:52 51°15.617 2°52.869 148 13.6 148 11.7
2004-03-04 15:08:52 51°15.426 2°53.06 147 13.6 147 11.1
2004-03-04 15:09:52 51°15.234 2°53.249 147.5 13.5 147 10.3
2004-03-04 15:10:52 51°15.043 2°53.44 148 13.6 148 9.8
2004-03-04 15:11:52 51°14.859 2°53.63 148.7 11.9 145 9.8
2004-03-04 15:12:52 51°14.732 2°53.766 152.9 7.2 152 10.8
2004-03-04 15:13:52 51°14.65 2°53.83 150.2 4.4 151 10.8
2004-03-04 15:14:52 51°14.603 2°53.89 132 3.5 133 10.7
2004-03-04 15:15:52 51°14.561 2°53.975 125.7 4.8 125 10.7
2004-03-04 15:16:52 51°14.516 2°54.108 116.8 6.3 115 10.7
2004-03-04 15:17:52 51°14.468 2°54.307 109.8 9.6 108 10.5
2004-03-04 15:18:52 51°14.428 2°54.588 102.9 11.4 101 10.6
2004-03-04 15:19:52 51°14.39 2°54.872 104.5 11 103 10.3
2004-03-04 15:20:52 51°14.327 2°55.146 122.8 11.2 121 11.9
2004-03-04 15:21:52 51°14.229 2°55.314 145.1 7 142 12
2004-03-04 15:22:52 51°14.145 2°55.401 157.4 5.6 154 -999